Time;durP1;ratioP1;P1;durP2;ratioP2;P2;SDS_P1;SDS_P2;PMS_P1;PMS_P2;Temp;Humidity;BMP_temperature;BMP_pressure;BME280_temperature;BME280_humidity;BME280_pressure;Samples;Min_cycle;Max_cycle;Signal;HPM_P1;HPM_P2
2023/06/03 00:02:04;;;;;;;6.28;3.70;;;18.30;37.90;;;;;;20738;6834;123507;-81
2023/06/03 00:04:30;;;;;;;7.93;3.80;;;18.20;38.40;;;;;;20761;6834;123120;-80
2023/06/03 00:06:56;;;;;;;6.53;4.22;;;18.00;38.50;;;;;;20543;6834;277306;-80
2023/06/03 00:09:22;;;;;;;6.50;4.00;;;18.30;38.30;;;;;;20756;6834;117260;-82
2023/06/03 00:11:47;;;;;;;7.15;4.10;;;18.30;38.30;;;;;;20508;6834;336821;-80
2023/06/03 00:14:14;;;;;;;8.23;4.13;;;18.50;38.00;;;;;;20748;6834;117886;-82
2023/06/03 00:16:40;;;;;;;7.05;4.32;;;18.60;38.80;;;;;;20538;6834;317047;-81
2023/06/03 00:19:05;;;;;;;5.83;4.47;;;18.60;38.00;;;;;;20506;6834;317475;-82
2023/06/03 00:21:33;;;;;;;5.40;4.20;;;18.70;37.70;;;;;;20755;6834;117150;-82
2023/06/03 00:23:57;;;;;;;4.83;3.60;;;18.70;37.70;;;;;;20721;6834;118556;-81
2023/06/03 00:26:23;;;;;;;5.03;3.70;;;18.40;38.00;;;;;;20754;6834;117430;-82
2023/06/03 00:28:50;;;;;;;4.35;3.95;;;17.90;38.80;;;;;;20758;6834;120827;-83
2023/06/03 00:31:15;;;;;;;7.30;4.00;;;17.90;38.80;;;;;;20749;6834;117416;-83
2023/06/03 00:33:40;;;;;;;3.62;3.08;;;17.80;39.00;;;;;;20758;6834;119788;-79
2023/06/03 00:36:07;;;;;;;7.87;4.13;;;17.50;39.10;;;;;;20732;6834;119485;-85
2023/06/03 00:38:32;;;;;;;7.28;4.20;;;17.50;39.30;;;;;;20543;6834;336722;-82
2023/06/03 00:40:59;;;;;;;8.03;4.80;;;18.20;38.80;;;;;;20540;6834;335993;-82
2023/06/03 00:43:24;;;;;;;10.47;3.83;;;18.20;38.70;;;;;;20751;6834;117179;-83
2023/06/03 00:46:18;;;;;;;9.57;4.50;;;18.00;39.60;;;;;;20727;6834;117939;-86
2023/06/03 00:48:43;;;;;;;5.83;4.20;;;17.90;38.80;;;;;;20521;6834;327345;-80
2023/06/03 00:51:09;;;;;;;6.82;4.65;;;18.20;38.90;;;;;;20534;6834;331595;-82
2023/06/03 00:53:35;;;;;;;5.85;4.43;;;18.70;38.30;;;;;;20531;6834;277300;-80
2023/06/03 00:56:01;;;;;;;7.13;4.50;;;18.90;38.20;;;;;;20514;6834;307199;-80
2023/06/03 00:58:27;;;;;;;7.23;4.50;;;18.90;37.90;;;;;;20536;6834;307693;-81
2023/06/03 01:00:55;;;;;;;7.65;4.40;;;19.00;37.70;;;;;;20530;6834;306716;-81
2023/06/03 01:03:20;;;;;;;4.63;3.70;;;19.00;37.40;;;;;;20745;6833;117176;-80
2023/06/03 01:05:45;;;;;;;5.87;4.13;;;18.70;37.80;;;;;;20547;6834;299988;-81
2023/06/03 01:08:24;;;;;;;6.65;4.50;;;18.70;37.90;;;;;;20503;6834;282487;-79
2023/06/03 01:10:49;;;;;;;6.00;4.47;;;18.80;38.00;;;;;;20520;6834;307197;-81
2023/06/03 01:13:25;;;;;;;4.53;4.12;;;18.90;37.80;;;;;;20721;6834;119824;-80
2023/06/03 01:15:56;;;;;;;6.77;4.23;;;18.60;38.20;;;;;;20728;6834;117656;-80
2023/06/03 01:18:22;;;;;;;4.50;3.70;;;18.20;38.80;;;;;;20694;6849;118085;-79
2023/06/03 01:20:49;;;;;;;8.30;4.72;;;17.80;39.10;;;;;;20538;6834;322842;-79
2023/06/03 01:23:18;;;;;;;6.97;4.07;;;17.90;39.60;;;;;;20719;6842;118579;-79
2023/06/03 01:25:43;;;;;;;5.40;3.90;;;17.80;39.50;;;;;;20697;6848;117920;-79
2023/06/03 01:28:08;;;;;;;11.07;3.90;;;17.60;39.90;;;;;;20681;6851;117577;-79
2023/06/03 01:30:34;;;;;;;6.28;4.47;;;17.40;40.10;;;;;;20524;6834;277833;-79
2023/06/03 01:33:00;;;;;;;6.47;3.87;;;17.60;40.30;;;;;;20718;6842;121295;-79
2023/06/03 01:35:25;;;;;;;7.40;4.43;;;17.70;40.30;;;;;;20500;6842;341256;-79
2023/06/03 01:37:51;;;;;;;8.67;4.80;;;17.80;39.90;;;;;;20415;6848;279018;-79
2023/06/03 01:40:16;;;;;;;6.80;3.90;;;18.20;39.50;;;;;;20724;6848;67771;-79
2023/06/03 01:42:42;;;;;;;6.60;4.33;;;18.00;39.60;;;;;;20502;6848;308289;-79
2023/06/03 01:45:08;;;;;;;7.10;4.60;;;18.10;39.60;;;;;;20479;6851;308148;-79
2023/06/03 01:47:34;;;;;;;8.90;4.20;;;18.40;39.50;;;;;;20738;6834;123703;-79
2023/06/03 01:49:59;;;;;;;6.17;4.13;;;17.90;40.20;;;;;;20728;6834;118154;-79
2023/06/03 01:52:26;;;;;;;5.20;4.00;;;17.90;40.20;;;;;;20737;6834;117637;-79
2023/06/03 01:54:51;;;;;;;7.03;4.40;;;17.70;40.60;;;;;;20534;6834;336758;-79
2023/06/03 01:57:18;;;;;;;6.97;4.57;;;18.10;39.80;;;;;;20535;6834;308602;-79
2023/06/03 01:59:42;;;;;;;7.93;4.10;;;18.10;39.70;;;;;;20742;6834;117739;-79
2023/06/03 02:02:09;;;;;;;11.07;4.10;;;17.70;40.30;;;;;;20729;6834;117278;-79
2023/06/03 02:04:34;;;;;;;8.00;4.47;;;17.70;40.30;;;;;;20738;6834;117513;-79
2023/06/03 02:07:01;;;;;;;6.28;4.70;;;17.60;40.70;;;;;;20483;6851;337801;-79
2023/06/03 02:09:29;;;;;;;7.12;4.40;;;17.60;40.60;;;;;;20524;6834;336326;-79
2023/06/03 02:11:58;;;;;;;6.70;4.30;;;18.00;40.30;;;;;;20523;6834;299482;-79
2023/06/03 02:14:23;;;;;;;4.43;4.00;;;18.30;39.90;;;;;;20723;6832;117860;-79
2023/06/03 02:16:50;;;;;;;6.53;4.30;;;17.80;40.40;;;;;;20746;6834;117234;-79
2023/06/03 02:19:19;;;;;;;7.70;4.28;;;17.80;40.70;;;;;;20490;6850;340059;-79
2023/06/03 02:21:43;;;;;;;6.27;4.53;;;18.00;40.90;;;;;;20535;6834;282732;-79
2023/06/03 02:24:09;;;;;;;6.90;4.33;;;18.20;39.90;;;;;;20522;6834;299144;-79
2023/06/03 02:26:35;;;;;;;7.30;4.78;;;18.50;40.00;;;;;;20488;6849;307768;-79
2023/06/03 02:29:00;;;;;;;7.97;4.65;;;18.60;39.20;;;;;;20504;6842;311585;-79
2023/06/03 02:31:26;;;;;;;7.47;4.40;;;18.70;38.80;;;;;;20713;6842;118049;-79
2023/06/03 02:33:51;;;;;;;8.52;4.72;;;18.40;39.40;;;;;;20492;6842;337080;-79
2023/06/03 02:36:18;;;;;;;4.77;4.30;;;18.40;39.90;;;;;;20705;6848;117551;-79
2023/06/03 02:38:42;;;;;;;6.20;4.70;;;18.10;40.10;;;;;;20475;6851;298480;-79
2023/06/03 02:41:08;;;;;;;6.07;4.20;;;18.10;40.00;;;;;;20747;6834;117349;-79
2023/06/03 02:43:34;;;;;;;5.95;4.60;;;18.00;40.30;;;;;;20525;6834;308152;-79
2023/06/03 02:45:59;;;;;;;9.38;4.82;;;18.00;40.10;;;;;;20514;6834;319371;-79
2023/06/03 02:48:25;;;;;;;8.53;4.50;;;18.20;40.20;;;;;;20745;6834;117434;-79
2023/06/03 02:50:50;;;;;;;7.25;5.00;;;18.10;40.40;;;;;;20536;6834;307333;-79
2023/06/03 02:53:17;;;;;;;6.15;4.65;;;18.40;40.00;;;;;;20538;6834;309559;-79
2023/06/03 02:55:42;;;;;;;7.70;4.30;;;18.30;39.90;;;;;;20746;6834;117302;-79
2023/06/03 02:58:08;;;;;;;4.35;4.00;;;18.10;40.20;;;;;;20738;6834;118052;-79
2023/06/03 03:00:33;;;;;;;4.65;4.00;;;17.90;40.70;;;;;;20754;6834;123452;-79
2023/06/03 03:03:00;;;;;;;6.35;4.85;;;17.60;41.10;;;;;;20539;6834;278092;-79
2023/06/03 03:05:25;;;;;;;4.72;3.97;;;17.70;41.20;;;;;;20749;6834;117434;-79
2023/06/03 03:07:52;;;;;;;7.27;4.87;;;17.70;41.30;;;;;;20701;6838;118305;-79
2023/06/03 03:10:17;;;;;;;6.85;4.70;;;17.50;41.50;;;;;;20523;6836;308917;-79
2023/06/03 03:12:45;;;;;;;6.50;4.60;;;17.60;40.80;;;;;;20529;6836;278964;-79
2023/06/03 03:15:09;;;;;;;6.78;4.80;;;17.90;40.30;;;;;;20517;6836;278743;-79
2023/06/03 03:17:34;;;;;;;7.03;4.60;;;18.20;40.60;;;;;;20729;6836;118457;-79
2023/06/03 03:20:00;;;;;;;5.43;4.43;;;18.00;40.80;;;;;;20728;6836;117998;-79
2023/06/03 03:22:27;;;;;;;6.13;4.33;;;17.40;42.50;;;;;;20742;6836;117862;-79
2023/06/03 03:24:52;;;;;;;8.00;4.50;;;17.40;41.70;;;;;;20741;6836;123091;-79
2023/06/03 03:27:17;;;;;;;7.70;5.13;;;17.20;42.10;;;;;;20533;6834;300085;-79
2023/06/03 03:29:44;;;;;;;6.87;4.57;;;17.40;41.70;;;;;;20730;6835;117311;-79
2023/06/03 03:32:09;;;;;;;4.97;4.57;;;17.50;41.90;;;;;;20730;6835;117704;-79
2023/06/03 03:34:36;;;;;;;8.17;6.83;;;17.30;42.30;;;;;;20554;6836;308132;-79
2023/06/03 03:37:00;;;;;;;5.77;4.43;;;17.50;42.30;;;;;;20745;6836;117254;-79
2023/06/03 03:39:25;;;;;;;9.02;5.65;;;17.50;42.30;;;;;;20531;6836;279557;-79
2023/06/03 03:41:51;;;;;;;7.87;5.80;;;17.70;41.60;;;;;;20517;6836;278644;-79
2023/06/03 03:44:16;;;;;;;5.33;4.33;;;18.00;41.20;;;;;;20736;6836;123269;-79
2023/06/03 03:46:52;;;;;;;6.50;4.57;;;17.80;41.50;;;;;;20749;6836;117209;-79
2023/06/03 03:49:18;;;;;;;8.17;5.10;;;17.60;42.30;;;;;;20460;6836;281589;-80
2023/06/03 03:51:44;;;;;;;5.57;5.03;;;17.60;42.30;;;;;;20498;6836;312634;-79
2023/06/03 03:54:10;;;;;;;5.75;4.90;;;17.70;41.80;;;;;;20736;6836;117768;-80
2023/06/03 03:56:36;;;;;;;9.77;4.50;;;17.70;41.80;;;;;;20747;6836;119412;-80
2023/06/03 03:59:01;;;;;;;8.00;4.68;;;17.40;42.40;;;;;;20756;6836;117747;-79
2023/06/03 04:01:28;;;;;;;8.30;4.60;;;17.20;43.00;;;;;;20745;6836;117887;-79
2023/06/03 04:03:52;;;;;;;8.73;4.47;;;17.00;43.30;;;;;;20728;6836;117813;-80
2023/06/03 04:06:36;;;;;;;5.10;4.60;;;16.90;43.70;;;;;;20734;6836;117976;-79
2023/06/03 04:09:00;;;;;;;6.40;4.83;;;16.80;43.90;;;;;;20732;6836;117615;-79
2023/06/03 04:11:29;;;;;;;7.65;4.47;;;16.70;44.10;;;;;;20744;6836;116581;-80
2023/06/03 04:13:54;;;;;;;6.07;4.80;;;16.60;44.10;;;;;;20715;6836;123232;-79
2023/06/03 04:16:47;;;;;;;6.87;5.22;;;16.90;44.20;;;;;;20535;6836;281271;-79
2023/06/03 04:19:20;;;;;;;6.32;5.47;;;16.80;43.90;;;;;;20512;6836;308501;-81
2023/06/03 04:21:45;;;;;;;6.33;4.87;;;17.50;42.90;;;;;;20722;6836;117845;-79
2023/06/03 04:24:11;;;;;;;5.10;4.60;;;17.40;42.90;;;;;;20728;6836;117722;-80
2023/06/03 04:26:36;;;;;;;7.90;5.77;;;17.30;43.30;;;;;;20539;6836;312797;-80
2023/06/03 04:29:02;;;;;;;6.18;5.28;;;17.40;42.80;;;;;;20729;6836;117285;-80
2023/06/03 04:31:27;;;;;;;5.73;5.20;;;17.40;42.90;;;;;;20522;6836;281805;-79
2023/06/03 04:33:54;;;;;;;7.37;5.18;;;17.60;42.90;;;;;;20717;6836;117279;-79
2023/06/03 04:36:19;;;;;;;8.93;5.50;;;17.60;42.90;;;;;;20513;6836;341559;-79
2023/06/03 04:38:45;;;;;;;7.53;5.30;;;17.80;42.40;;;;;;20746;6834;117113;-79
2023/06/03 04:41:11;;;;;;;7.57;5.60;;;17.80;42.50;;;;;;20513;6835;279753;-80
2023/06/03 04:43:40;;;;;;;5.90;5.30;;;18.00;42.50;;;;;;20529;6835;298161;-80
2023/06/03 04:46:06;;;;;;;10.07;5.10;;;18.30;41.50;;;;;;20721;6836;117711;-80
2023/06/03 04:48:33;;;;;;;7.43;5.87;;;18.30;41.30;;;;;;20527;6836;309697;-79
2023/06/03 04:51:00;;;;;;;9.60;4.90;;;18.30;41.30;;;;;;20512;6836;308531;-80
2023/06/03 04:53:25;;;;;;;7.87;5.40;;;18.80;41.00;;;;;;20515;6836;312183;-80
2023/06/03 04:55:51;;;;;;;8.48;5.55;;;18.70;40.40;;;;;;20508;6836;337214;-80
2023/06/03 04:58:18;;;;;;;6.87;5.50;;;18.90;40.40;;;;;;20520;6836;308095;-80
2023/06/03 05:00:41;;;;;;;7.90;5.10;;;18.90;40.80;;;;;;20713;6836;117302;-79
2023/06/03 05:03:10;;;;;;;6.03;4.60;;;18.90;40.80;;;;;;20714;6836;116735;-80
2023/06/03 05:05:36;;;;;;;6.33;5.30;;;18.60;41.40;;;;;;20514;6836;312764;-80
2023/06/03 05:08:02;;;;;;;7.12;4.90;;;18.60;41.40;;;;;;20695;6836;124491;-79
2023/06/03 05:10:27;;;;;;;6.27;4.67;;;18.60;41.40;;;;;;20709;6836;120640;-80
2023/06/03 05:12:53;;;;;;;4.93;4.37;;;18.40;41.70;;;;;;20736;6836;117657;-80
2023/06/03 05:15:19;;;;;;;7.03;4.93;;;18.30;41.90;;;;;;20514;6836;278922;-80
2023/06/03 05:17:44;;;;;;;6.75;5.12;;;18.50;42.60;;;;;;20506;6836;308560;-80
2023/06/03 05:20:10;;;;;;;5.53;4.90;;;18.90;41.80;;;;;;20705;6836;117308;-80
2023/06/03 05:22:36;;;;;;;8.07;4.43;;;18.80;41.60;;;;;;20727;6836;117707;-80
2023/06/03 05:25:01;;;;;;;5.70;4.43;;;18.60;42.30;;;;;;20733;6836;117700;-80
2023/06/03 05:27:27;;;;;;;7.30;4.90;;;18.40;42.80;;;;;;20718;6836;117275;-80
2023/06/03 05:29:52;;;;;;;7.93;6.03;;;18.30;43.00;;;;;;20507;6836;312814;-80
2023/06/03 05:32:18;;;;;;;6.47;5.43;;;18.50;42.50;;;;;;20524;6836;298824;-80
2023/06/03 05:34:43;;;;;;;8.80;5.50;;;18.90;41.40;;;;;;20740;6836;117890;-79
2023/06/03 05:37:10;;;;;;;5.72;4.87;;;18.60;41.60;;;;;;20741;6836;117728;-79
2023/06/03 05:39:35;;;;;;;7.23;5.03;;;18.60;41.60;;;;;;20732;6836;116737;-79
2023/06/03 05:42:02;;;;;;;7.45;5.55;;;18.60;40.60;;;;;;20498;6836;307675;-79
2023/06/03 05:44:27;;;;;;;5.20;4.70;;;18.60;40.60;;;;;;20733;6836;116913;-79
2023/06/03 05:46:53;;;;;;;7.53;4.75;;;18.60;40.90;;;;;;20730;6836;121817;-79
2023/06/03 05:49:18;;;;;;;6.93;5.07;;;18.40;41.00;;;;;;20524;6834;308354;-79
2023/06/03 05:51:45;;;;;;;10.60;5.30;;;18.60;41.20;;;;;;20724;6835;116954;-79
2023/06/03 05:54:10;;;;;;;8.40;5.13;;;18.60;41.10;;;;;;20716;6835;123241;-79
2023/06/03 05:56:36;;;;;;;8.25;5.97;;;18.50;41.30;;;;;;20527;6836;320520;-79
2023/06/03 05:59:02;;;;;;;8.70;5.07;;;18.70;41.60;;;;;;20738;6836;118329;-80
2023/06/03 06:01:28;;;;;;;7.43;5.40;;;18.70;41.60;;;;;;20518;6836;307644;-79
2023/06/03 06:03:53;;;;;;;6.20;5.10;;;19.10;40.60;;;;;;20506;6836;278976;-79
2023/06/03 06:06:19;;;;;;;7.35;5.35;;;19.50;40.60;;;;;;20516;6836;278883;-79
2023/06/03 06:08:44;;;;;;;5.03;4.47;;;19.90;39.70;;;;;;20719;6836;117637;-79
2023/06/03 06:11:10;;;;;;;7.62;4.70;;;19.90;40.00;;;;;;20725;6836;122645;-79
2023/06/03 06:13:35;;;;;;;5.80;5.05;;;19.90;40.90;;;;;;20533;6836;308522;-79
2023/06/03 06:16:01;;;;;;;6.50;5.43;;;20.60;39.40;;;;;;20512;6836;334192;-82
2023/06/03 06:18:27;;;;;;;8.07;4.90;;;21.50;38.20;;;;;;20738;6836;117860;-80
2023/06/03 06:20:52;;;;;;;6.70;5.03;;;22.10;38.70;;;;;;20529;6836;296062;-79
2023/06/03 06:23:18;;;;;;;6.20;4.70;;;23.20;36.70;;;;;;20744;6834;117353;-79
2023/06/03 06:25:51;;;;;;;7.47;5.18;;;23.10;36.60;;;;;;20542;6834;280440;-79
2023/06/03 06:28:20;;;;;;;7.70;4.57;;;23.70;34.90;;;;;;20752;6834;117439;-80
2023/06/03 06:30:46;;;;;;;6.30;4.87;;;24.50;33.50;;;;;;20544;6834;286443;-79
2023/06/03 06:33:12;;;;;;;7.55;5.30;;;24.40;33.40;;;;;;20479;6851;337465;-79
2023/06/03 06:35:37;;;;;;;8.73;5.40;;;25.00;33.00;;;;;;20533;6834;307868;-79
2023/06/03 06:38:04;;;;;;;7.87;5.40;;;25.80;31.50;;;;;;20522;6834;284590;-79
2023/06/03 06:40:29;;;;;;;6.33;4.47;;;25.80;31.40;;;;;;20747;6834;117728;-79
2023/06/03 06:42:55;;;;;;;8.50;4.77;;;25.70;32.20;;;;;;20742;6834;117160;-79
2023/06/03 06:45:23;;;;;;;6.50;5.00;;;25.40;32.70;;;;;;20535;6834;277403;-78
2023/06/03 06:47:49;;;;;;;6.43;4.70;;;25.60;31.60;;;;;;20727;6834;117676;-79
2023/06/03 06:50:34;;;;;;;7.15;5.35;;;25.70;32.40;;;;;;20486;6848;307257;-79
2023/06/03 06:53:00;;;;;;;6.60;4.67;;;25.90;31.10;;;;;;20496;6834;307716;-79
2023/06/03 06:55:35;;;;;;;9.63;4.80;;;26.30;30.40;;;;;;20721;6843;117266;-80
2023/06/03 06:58:00;;;;;;;5.90;5.23;;;26.30;31.40;;;;;;20441;6848;308477;-79
2023/06/03 07:00:26;;;;;;;9.50;4.87;;;26.60;30.80;;;;;;20490;6846;309497;-79
2023/06/03 07:02:51;;;;;;;6.87;4.33;;;27.00;30.30;;;;;;20693;6847;117626;-79
2023/06/03 07:05:17;;;;;;;8.03;5.00;;;27.00;30.70;;;;;;20518;6841;303740;-79
2023/06/03 07:07:43;;;;;;;6.05;4.57;;;27.10;29.90;;;;;;20725;6841;117044;-79
2023/06/03 07:10:08;;;;;;;6.37;5.07;;;27.00;30.20;;;;;;20520;6836;278504;-80
2023/06/03 07:12:34;;;;;;;6.30;5.03;;;27.00;30.50;;;;;;20737;6836;117210;-79
2023/06/03 07:15:00;;;;;;;5.83;5.07;;;27.00;30.50;;;;;;20732;6836;117312;-79
2023/06/03 07:17:26;;;;;;;5.53;4.68;;;26.80;31.00;;;;;;20747;6836;117176;-79
2023/06/03 07:19:51;;;;;;;6.17;5.30;;;26.60;31.30;;;;;;20508;6836;312380;-80
2023/06/03 07:22:17;;;;;;;8.57;4.60;;;26.70;30.00;;;;;;20744;6836;117405;-79
2023/06/03 07:24:42;;;;;;;7.05;5.10;;;26.60;30.30;;;;;;20535;6836;283008;-79
2023/06/03 07:27:09;;;;;;;7.30;5.55;;;26.80;29.90;;;;;;20532;6836;308823;-79
2023/06/03 07:29:34;;;;;;;5.30;4.80;;;26.80;30.20;;;;;;20735;6836;117237;-80
2023/06/03 07:32:00;;;;;;;5.70;5.10;;;26.60;30.40;;;;;;20508;6836;308138;-79
2023/06/03 07:34:25;;;;;;;7.70;5.20;;;26.60;30.60;;;;;;20538;6836;296454;-79
2023/06/03 07:36:54;;;;;;;7.43;5.12;;;26.60;31.00;;;;;;20522;6836;313082;-80
2023/06/03 07:39:17;;;;;;;6.30;5.50;;;26.70;30.40;;;;;;20527;6836;308488;-79
2023/06/03 07:41:46;;;;;;;8.93;5.10;;;26.70;30.30;;;;;;20542;6836;331699;-80
2023/06/03 07:44:11;;;;;;;7.33;4.73;;;26.80;31.20;;;;;;20648;6836;118445;-76
2023/06/03 07:46:43;;;;;;;7.00;5.43;;;26.60;30.90;;;;;;20538;6836;283229;-79
2023/06/03 07:49:13;;;;;;;5.83;5.13;;;26.50;30.40;;;;;;20742;6836;117886;-83
2023/06/03 07:51:38;;;;;;;7.80;4.97;;;26.30;31.00;;;;;;20533;6836;308086;-79
2023/06/03 07:54:04;;;;;;;7.10;4.90;;;26.40;30.60;;;;;;20733;6836;121166;-80
2023/06/03 07:56:29;;;;;;;5.93;4.75;;;26.20;30.90;;;;;;20754;6836;117958;-80
2023/06/03 07:58:55;;;;;;;5.90;5.07;;;26.00;31.10;;;;;;20548;6836;280082;-80
2023/06/03 08:01:21;;;;;;;9.40;5.53;;;26.20;31.20;;;;;;20534;6836;308609;-80
2023/06/03 08:07:13;;;;;;;7.77;4.37;;;26.50;30.80;;;;;;20740;6834;117974;-85
2023/06/03 08:09:40;;;;;;;5.00;4.60;;;26.10;31.70;;;;;;20760;6834;117222;-78
2023/06/03 08:12:10;;;;;;;5.20;4.70;;;26.10;31.60;;;;;;20709;6841;121436;-81
2023/06/03 08:14:35;;;;;;;5.77;5.17;;;26.10;31.80;;;;;;20716;6847;117699;-81
2023/06/03 08:17:01;;;;;;;7.67;5.40;;;26.10;31.80;;;;;;20506;6847;308126;-82
2023/06/03 08:19:26;;;;;;;7.77;5.70;;;26.40;32.40;;;;;;20483;6847;338109;-83
2023/06/03 08:21:53;;;;;;;5.40;4.90;;;26.90;30.70;;;;;;20688;6847;117692;-80
2023/06/03 08:24:21;;;;;;;5.83;4.97;;;26.90;30.60;;;;;;20708;6848;117305;-82
2023/06/03 08:26:48;;;;;;;7.35;5.50;;;26.90;30.90;;;;;;20503;6849;283163;-83
2023/06/03 08:29:13;;;;;;;9.00;5.50;;;26.90;30.40;;;;;;20536;6834;300876;-81
2023/06/03 08:31:39;;;;;;;7.97;5.70;;;27.10;30.80;;;;;;20536;6834;308050;-81
2023/06/03 08:34:04;;;;;;;5.90;5.30;;;27.40;30.90;;;;;;20736;6834;117617;-81
2023/06/03 08:36:30;;;;;;;8.77;5.65;;;27.30;30.70;;;;;;20540;6834;306832;-81
2023/06/03 08:38:56;;;;;;;7.00;5.73;;;27.40;30.60;;;;;;20541;6834;307304;-81
2023/06/03 08:41:26;;;;;;;8.93;5.23;;;27.60;30.10;;;;;;20549;6834;278194;-82
2023/06/03 08:43:51;;;;;;;7.57;5.00;;;27.90;30.60;;;;;;20745;6834;117692;-81
2023/06/03 08:46:23;;;;;;;7.53;5.67;;;27.80;30.40;;;;;;20536;6834;307748;-82
2023/06/03 08:49:01;;;;;;;7.83;5.47;;;27.90;29.90;;;;;;20751;6834;117828;-81
2023/06/03 08:51:26;;;;;;;7.23;5.43;;;27.80;30.10;;;;;;20765;6834;117176;-83
2023/06/03 08:53:52;;;;;;;8.77;4.90;;;27.50;30.30;;;;;;20746;6834;127038;-82
2023/06/03 08:56:17;;;;;;;6.47;5.53;;;27.40;30.70;;;;;;20519;6849;277772;-83
2023/06/03 08:58:46;;;;;;;6.93;5.20;;;27.50;30.50;;;;;;20692;6849;117688;-83
2023/06/03 09:01:11;;;;;;;6.95;5.80;;;27.50;30.30;;;;;;20573;6834;307710;-83
2023/06/03 09:03:37;;;;;;;6.67;5.30;;;27.70;30.10;;;;;;20764;6834;117269;-88
2023/06/03 09:06:03;;;;;;;8.73;5.90;;;27.70;30.30;;;;;;20538;6834;307691;-81
2023/06/03 09:08:30;;;;;;;7.55;5.50;;;28.10;30.20;;;;;;20546;6834;308095;-79
2023/06/03 09:10:56;;;;;;;6.20;4.90;;;28.10;30.20;;;;;;20747;6834;117270;-81
2023/06/03 09:13:22;;;;;;;5.77;5.20;;;28.10;30.30;;;;;;20756;6834;117457;-84
2023/06/03 09:15:48;;;;;;;6.10;5.57;;;27.90;30.10;;;;;;20742;6834;117577;-83
2023/06/03 09:18:15;;;;;;;5.53;5.00;;;27.80;30.00;;;;;;20753;6834;118422;-81
2023/06/03 09:20:41;;;;;;;5.70;5.20;;;27.70;30.30;;;;;;20754;6834;117957;-82
2023/06/03 09:23:06;;;;;;;6.35;5.30;;;27.70;30.70;;;;;;20542;6834;310923;-81
2023/06/03 09:25:33;;;;;;;6.43;5.82;;;28.00;30.80;;;;;;20756;6833;117252;-80
2023/06/03 09:28:00;;;;;;;8.13;5.30;;;28.30;30.80;;;;;;20715;6834;126917;-78
2023/06/03 09:30:32;;;;;;;9.80;5.68;;;28.50;30.00;;;;;;20527;6834;304883;-80
2023/06/03 09:32:52;;;;;;;6.13;5.40;;;28.40;30.00;;;;;;20712;6834;117424;-81
2023/06/03 09:35:17;;;;;;;6.87;6.10;;;28.60;30.10;;;;;;20527;6834;336255;-81
2023/06/03 09:37:56;;;;;;;9.00;5.40;;;28.70;29.00;;;;;;20737;6834;123362;-81
2023/06/03 09:40:24;;;;;;;7.80;5.33;;;28.70;29.50;;;;;;20692;6834;118067;-80
2023/06/03 09:42:50;;;;;;;6.40;5.40;;;28.50;29.90;;;;;;20720;6849;117333;-85
2023/06/03 09:45:29;;;;;;;6.57;4.80;;;28.40;30.00;;;;;;20797;6834;117115;-87
2023/06/03 09:47:54;;;;;;;6.72;5.55;;;28.20;30.10;;;;;;20551;6834;281690;-81
2023/06/03 09:50:20;;;;;;;5.93;5.33;;;28.40;30.20;;;;;;20752;6834;116748;-83
2023/06/03 09:52:45;;;;;;;8.90;5.53;;;28.50;30.30;;;;;;20540;6834;306858;-82
2023/06/03 09:55:11;;;;;;;7.80;5.57;;;28.80;30.40;;;;;;20542;6834;295133;-85
2023/06/03 09:57:36;;;;;;;9.57;5.50;;;29.10;30.00;;;;;;20691;6849;117731;-81
2023/06/03 10:00:10;;;;;;;7.53;5.50;;;29.10;29.60;;;;;;20708;6842;117991;-85
2023/06/03 10:02:42;;;;;;;8.83;5.80;;;29.00;29.80;;;;;;20499;6843;307124;-81
2023/06/03 10:05:26;;;;;;;14.60;6.40;;;29.20;30.00;;;;;;20703;6843;117266;-82
2023/06/03 10:07:52;;;;;;;14.93;6.20;;;29.30;30.00;;;;;;20687;6848;118226;-86
2023/06/03 10:10:17;;;;;;;6.27;5.63;;;29.30;29.90;;;;;;20549;6834;340297;-81
2023/06/03 10:12:45;;;;;;;6.40;5.80;;;29.60;29.40;;;;;;20748;6834;117469;-81
2023/06/03 10:15:09;;;;;;;12.47;6.30;;;29.60;29.40;;;;;;20527;6834;307265;-82
2023/06/03 10:17:35;;;;;;;6.30;5.70;;;29.80;29.60;;;;;;20757;6834;117360;-84
2023/06/03 10:20:00;;;;;;;8.07;6.12;;;29.90;29.90;;;;;;20644;6849;117329;-81
2023/06/03 10:22:26;;;;;;;6.57;5.90;;;29.60;29.20;;;;;;20544;6834;308547;-82
2023/06/03 10:24:54;;;;;;;9.32;5.75;;;29.60;29.50;;;;;;20724;6843;117267;-82
2023/06/03 10:27:20;;;;;;;7.73;5.70;;;29.50;29.40;;;;;;20501;6848;307783;-82
2023/06/03 10:29:45;;;;;;;24.90;7.90;;;29.60;29.20;;;;;;20500;6849;308994;-82
2023/06/03 10:32:12;;;;;;;7.27;5.47;;;29.70;29.80;;;;;;20689;6840;120060;-81
2023/06/03 10:34:42;;;;;;;9.35;6.10;;;29.70;29.40;;;;;;20515;6836;292048;-81
2023/06/03 10:37:13;;;;;;;6.43;5.70;;;29.70;29.40;;;;;;20532;6834;278698;-82
2023/06/03 10:39:37;;;;;;;6.40;5.80;;;29.90;29.20;;;;;;20535;6835;326145;-78
2023/06/03 10:42:03;;;;;;;8.55;6.47;;;30.00;29.10;;;;;;20518;6836;311604;-78
2023/06/03 10:44:29;;;;;;;7.10;5.90;;;30.00;29.10;;;;;;20553;6836;307154;-78
2023/06/03 10:46:58;;;;;;;5.80;5.40;;;30.10;29.30;;;;;;20750;6836;117714;-78
2023/06/03 10:49:25;;;;;;;6.30;5.30;;;30.00;29.20;;;;;;20734;6836;117036;-78
2023/06/03 10:51:50;;;;;;;8.07;6.10;;;29.70;29.60;;;;;;20515;6836;283256;-78
2023/06/03 10:54:36;;;;;;;8.85;6.25;;;29.70;29.10;;;;;;20506;6836;282177;-78
2023/06/03 10:57:05;;;;;;;8.77;5.80;;;29.90;29.20;;;;;;20752;6834;117333;-77
2023/06/03 10:59:28;;;;;;;6.47;5.97;;;29.80;29.20;;;;;;20700;6842;117152;-79
2023/06/03 11:02:00;;;;;;;7.15;6.45;;;29.50;29.30;;;;;;20468;6842;278443;-82
2023/06/03 11:04:25;;;;;;;8.40;5.70;;;29.40;29.60;;;;;;20706;6849;123280;-86
2023/06/03 11:06:53;;;;;;;9.07;6.00;;;29.10;29.90;;;;;;20731;6842;118127;-84
2023/06/03 11:09:38;;;;;;;7.40;5.80;;;29.00;29.90;;;;;;20712;6842;117955;-78
2023/06/03 11:12:04;;;;;;;6.57;5.97;;;28.80;30.80;;;;;;20481;6842;292670;-87
2023/06/03 11:14:29;;;;;;;7.17;5.80;;;29.00;30.80;;;;;;20716;6843;116929;-79
2023/06/03 11:16:57;;;;;;;6.57;6.07;;;29.10;30.40;;;;;;20495;6848;278505;-82
2023/06/03 11:19:36;;;;;;;6.83;6.20;;;29.30;30.30;;;;;;20710;6848;117170;-83
2023/06/03 11:22:02;;;;;;;6.82;6.18;;;29.50;29.90;;;;;;20478;6848;311874;-83
2023/06/03 11:24:47;;;;;;;7.40;5.97;;;29.70;29.80;;;;;;20494;6848;308571;-83
2023/06/03 11:27:16;;;;;;;6.30;5.73;;;29.90;29.80;;;;;;20703;6848;117134;-87
2023/06/03 11:29:51;;;;;;;5.93;5.33;;;30.00;29.40;;;;;;20698;6848;117330;-83
2023/06/03 11:32:23;;;;;;;6.60;6.00;;;29.80;29.50;;;;;;20497;6848;311082;-86
2023/06/03 11:34:48;;;;;;;6.63;6.03;;;29.80;29.70;;;;;;20465;6848;280162;-85
2023/06/03 11:37:20;;;;;;;8.52;6.22;;;30.00;29.40;;;;;;20476;6848;296941;-81
2023/06/03 11:40:08;;;;;;;6.23;5.63;;;30.10;29.00;;;;;;20712;6848;117244;-80
2023/06/03 11:42:47;;;;;;;6.80;6.10;;;29.90;29.30;;;;;;20498;6848;308282;-76
2023/06/03 11:45:28;;;;;;;6.20;5.33;;;29.90;29.80;;;;;;20700;6848;123068;-77
2023/06/03 11:47:51;;;;;;;6.83;6.03;;;29.80;29.70;;;;;;20675;6846;117103;-81
2023/06/03 11:50:17;;;;;;;6.32;5.78;;;29.70;29.50;;;;;;20480;6850;347290;-78
2023/06/03 11:52:43;;;;;;;6.57;5.83;;;29.70;29.50;;;;;;20734;6834;117099;-81
2023/06/03 11:55:08;;;;;;;6.75;6.25;;;29.70;30.10;;;;;;20529;6834;277331;-79
2023/06/03 11:57:34;;;;;;;6.73;5.40;;;29.80;29.30;;;;;;20745;6834;117611;-85
2023/06/03 11:59:59;;;;;;;6.60;6.00;;;29.70;29.30;;;;;;20515;6834;308199;-81
2023/06/03 12:02:25;;;;;;;6.47;5.87;;;29.70;29.80;;;;;;20743;6834;117703;-79
2023/06/03 12:04:51;;;;;;;7.10;6.47;;;29.50;29.40;;;;;;20540;6834;278225;-84
2023/06/03 12:07:16;;;;;;;6.75;5.97;;;29.60;29.70;;;;;;20544;6834;278634;-83
2023/06/03 12:09:43;;;;;;;7.03;6.00;;;29.70;29.80;;;;;;20529;6834;297602;-80
2023/06/03 12:12:09;;;;;;;6.20;5.70;;;29.90;29.40;;;;;;20726;6834;120824;-80
2023/06/03 12:14:38;;;;;;;6.57;5.97;;;29.90;29.60;;;;;;20517;6834;311191;-82
2023/06/03 12:17:09;;;;;;;6.68;6.07;;;29.90;28.70;;;;;;20541;6834;282498;-80
2023/06/03 12:19:33;;;;;;;5.70;5.30;;;29.90;28.40;;;;;;20746;6834;118417;-80
2023/06/03 12:21:59;;;;;;;5.97;5.20;;;29.80;28.70;;;;;;20690;6834;118598;-83
2023/06/03 12:24:29;;;;;;;5.97;5.45;;;29.50;28.90;;;;;;20533;6834;306759;-76
2023/06/03 12:26:54;;;;;;;6.97;6.00;;;29.60;28.50;;;;;;20510;6834;307310;-83
2023/06/03 12:29:20;;;;;;;23.27;7.10;;;29.80;29.20;;;;;;20748;6834;117213;-79
2023/06/03 12:31:59;;;;;;;6.20;5.80;;;29.70;29.20;;;;;;20743;6834;117853;-77
2023/06/03 12:34:33;;;;;;;6.80;5.73;;;29.70;29.20;;;;;;20535;6834;282155;-78
2023/06/03 12:36:57;;;;;;;6.60;5.90;;;29.70;29.10;;;;;;20534;6834;336788;-78
2023/06/03 12:39:23;;;;;;;7.28;6.15;;;29.90;28.60;;;;;;20535;6834;299993;-79